Time,TemperatureF,DewpointF,PressureIn,WindDirection,WindDirectionDegrees,WindSpeedMPH,WindSpeedGustMPH,Humidity,HourlyPrecipIn,Conditions,Clouds,dailyrainin,SoftwareType,DateUTC
2013-01-08 00:02:00,31.1,28.2,30.08,South,174,1.0,4.0,89,0.00,,---,0.00,VWS V14.00,2013-01-08 06:02:00,
2013-01-08 00:07:00,31.0,28.1,30.08,SSW,196,2.0,4.0,89,0.00,,---,0.00,VWS V14.00,2013-01-08 06:07:00,
2013-01-08 00:13:00,31.0,28.1,30.08,South,187,6.0,6.0,89,0.00,,---,0.00,VWS V14.00,2013-01-08 06:13:00,
2013-01-08 00:18:00,31.0,28.1,30.08,SSW,196,2.0,7.0,89,0.00,,---,0.00,VWS V14.00,2013-01-08 06:18:00,
2013-01-08 00:23:00,31.0,28.1,30.08,SSW,200,2.0,7.0,89,0.00,,---,0.00,VWS V14.00,2013-01-08 06:23:00,
2013-01-08 00:28:00,31.0,28.1,30.09,SSW,209,1.0,7.0,89,0.00,,---,0.00,VWS V14.00,2013-01-08 06:28:00,
2013-01-08 00:33:00,31.0,28.1,30.09,SSE,164,2.0,6.0,89,0.00,,---,0.00,VWS V14.00,2013-01-08 06:33:00,
2013-01-08 00:38:00,31.0,28.1,30.09,SSE,165,2.0,7.0,89,0.00,,---,0.00,VWS V14.00,2013-01-08 06:38:00,
2013-01-08 00:43:00,31.0,28.1,30.08,SSW,196,2.0,7.0,89,0.00,,---,0.00,VWS V14.00,2013-01-08 06:43:00,
2013-01-08 00:48:00,30.9,28.0,30.08,South,188,0.0,7.0,89,0.00,,---,0.00,VWS V14.00,2013-01-08 06:48:00,
2013-01-08 00:54:00,30.8,28.0,30.08,SSW,200,0.0,7.0,89,0.00,,---,0.00,VWS V14.00,2013-01-08 06:54:00,
2013-01-08 00:59:00,30.8,28.0,30.08,South,189,0.0,7.0,89,0.00,,---,0.00,VWS V14.00,2013-01-08 06:59:00,
2013-01-08 01:04:00,30.7,27.9,30.08,SSW,200,2.0,6.0,89,0.00,,---,0.00,VWS V14.00,2013-01-08 07:04:00,
2013-01-08 01:09:00,30.7,27.9,30.08,South,185,5.0,7.0,89,0.00,,---,0.00,VWS V14.00,2013-01-08 07:09:00,
2013-01-08 01:14:00,30.7,27.9,30.08,SSW,192,3.0,7.0,89,0.00,,---,0.00,VWS V14.00,2013-01-08 07:14:00,
2013-01-08 01:19:00,30.6,27.8,30.08,South,188,3.0,7.0,89,0.00,,---,0.00,VWS V14.00,2013-01-08 07:19:00,
2013-01-08 01:24:00,30.6,27.8,30.09,SSW,196,0.0,7.0,89,0.00,,---,0.00,VWS V14.00,2013-01-08 07:24:00,
2013-01-08 01:29:00,30.6,27.8,30.09,South,188,4.0,7.0,89,0.00,,---,0.00,VWS V14.00,2013-01-08 07:29:00,
2013-01-08 01:34:00,30.6,27.8,30.08,SSE,157,1.0,5.0,89,0.00,,---,0.00,VWS V14.00,2013-01-08 07:34:00,
2013-01-08 01:39:00,30.5,27.6,30.09,South,184,4.0,6.0,89,0.00,,---,0.00,VWS V14.00,2013-01-08 07:39:00,
2013-01-08 01:45:00,30.6,28.0,30.09,South,178,0.0,6.0,90,0.00,,---,0.00,VWS V14.00,2013-01-08 07:45:00,
2013-01-08 01:50:00,30.5,27.6,30.09,SSW,194,5.0,6.0,89,0.00,,---,0.00,VWS V14.00,2013-01-08 07:50:00,
2013-01-08 01:55:00,30.5,27.9,30.09,South,182,4.0,6.0,90,0.00,,---,0.00,VWS V14.00,2013-01-08 07:55:00,
2013-01-08 02:00:00,30.6,27.8,30.09,South,185,4.0,7.0,89,0.00,,---,0.00,VWS V14.00,2013-01-08 08:00:00,
2013-01-08 02:05:00,30.5,27.6,30.09,South,184,4.0,7.0,89,0.00,,---,0.00,VWS V14.00,2013-01-08 08:05:00,
2013-01-08 02:10:00,30.5,27.6,30.09,South,181,2.0,8.0,89,0.00,,---,0.00,VWS V14.00,2013-01-08 08:10:00,
2013-01-08 02:15:00,30.6,27.8,30.09,South,176,4.0,8.0,89,0.00,,---,0.00,VWS V14.00,2013-01-08 08:15:00,
2013-01-08 02:20:00,30.6,27.8,30.09,SSW,202,2.0,8.0,89,0.00,,---,0.00,VWS V14.00,2013-01-08 08:20:00,
2013-01-08 02:25:00,30.6,27.8,30.09,South,186,0.0,8.0,89,0.00,,---,0.00,VWS V14.00,2013-01-08 08:25:00,
2013-01-08 02:30:00,30.6,27.8,30.09,South,182,3.0,4.0,89,0.00,,---,0.00,VWS V14.00,2013-01-08 08:30:00,
2013-01-08 02:36:00,30.5,27.6,30.09,SSE,155,5.0,5.0,89,0.00,,---,0.00,VWS V14.00,2013-01-08 08:36:00,
2013-01-08 02:41:00,30.5,27.6,30.09,South,186,6.0,6.0,89,0.00,,---,0.00,VWS V14.00,2013-01-08 08:41:00,
2013-01-08 02:46:00,30.5,27.6,30.09,South,175,0.0,7.0,89,0.00,,---,0.00,VWS V14.00,2013-01-08 08:46:00,
2013-01-08 02:51:00,30.5,27.6,30.09,South,181,1.0,7.0,89,0.00,,---,0.00,VWS V14.00,2013-01-08 08:51:00,
2013-01-08 02:56:00,30.4,27.5,30.08,South,182,3.0,7.0,89,0.00,,---,0.00,VWS V14.00,2013-01-08 08:56:00,
2013-01-08 03:01:00,30.3,27.5,30.09,South,188,0.0,3.0,89,0.00,,---,0.00,VWS V14.00,2013-01-08 09:01:00,
2013-01-08 03:06:00,30.3,27.5,30.09,SSE,163,2.0,6.0,89,0.00,,---,0.00,VWS V14.00,2013-01-08 09:06:00,
2013-01-08 03:11:00,30.3,27.5,30.08,SSE,154,5.0,8.0,89,0.00,,---,0.00,VWS V14.00,2013-01-08 09:11:00,
2013-01-08 03:16:00,30.3,27.5,30.08,SE,134,2.0,8.0,89,0.00,,---,0.00,VWS V14.00,2013-01-08 09:16:00,
2013-01-08 03:21:00,30.3,27.2,30.08,South,170,4.0,8.0,88,0.00,,---,0.00,VWS V14.00,2013-01-08 09:21:00,
2013-01-08 03:27:00,30.3,27.2,30.09,South,174,0.0,8.0,88,0.00,,---,0.00,VWS V14.00,2013-01-08 09:27:00,
2013-01-08 03:32:00,30.3,27.2,30.08,South,190,3.0,3.0,88,0.00,,---,0.00,VWS V14.00,2013-01-08 09:32:00,
2013-01-08 03:37:00,30.3,27.2,30.08,SSE,160,0.0,4.0,88,0.00,,---,0.00,VWS V14.00,2013-01-08 09:37:00,
2013-01-08 03:42:00,30.1,27.0,30.08,SSW,196,4.0,5.0,88,0.00,,---,0.00,VWS V14.00,2013-01-08 09:42:00,
2013-01-08 03:47:00,30.1,27.0,30.08,South,186,1.0,6.0,88,0.00,,---,0.00,VWS V14.00,2013-01-08 09:47:00,
2013-01-08 03:52:00,29.9,26.8,30.08,South,171,1.0,6.0,88,0.00,,---,0.00,VWS V14.00,2013-01-08 09:52:00,
2013-01-08 03:57:00,29.8,26.7,30.08,South,171,5.0,6.0,88,0.00,,---,0.00,VWS V14.00,2013-01-08 09:57:00,
2013-01-08 04:02:00,29.7,26.6,30.08,SSW,196,0.0,6.0,88,0.00,,---,0.00,VWS V14.00,2013-01-08 10:02:00,
2013-01-08 04:07:00,29.6,26.5,30.08,SSW,201,0.0,6.0,88,0.00,,---,0.00,VWS V14.00,2013-01-08 10:07:00,
2013-01-08 04:12:00,29.5,26.4,30.08,SSW,200,3.0,6.0,88,0.00,,---,0.00,VWS V14.00,2013-01-08 10:12:00,
2013-01-08 04:18:00,29.3,26.2,30.08,South,176,0.0,6.0,88,0.00,,---,0.00,VWS V14.00,2013-01-08 10:18:00,
2013-01-08 04:23:00,29.3,26.2,30.08,South,182,0.0,6.0,88,0.00,,---,0.00,VWS V14.00,2013-01-08 10:23:00,
2013-01-08 04:28:00,29.2,26.1,30.08,South,182,0.0,6.0,88,0.00,,---,0.00,VWS V14.00,2013-01-08 10:28:00,
2013-01-08 04:33:00,29.1,26.3,30.08,South,182,0.0,3.0,89,0.00,,---,0.00,VWS V14.00,2013-01-08 10:33:00,
2013-01-08 04:38:00,29.1,26.0,30.08,South,182,0.0,3.0,88,0.00,,---,0.00,VWS V14.00,2013-01-08 10:38:00,
2013-01-08 04:43:00,28.7,25.3,30.08,South,182,0.0,3.0,87,0.00,,---,0.00,VWS V14.00,2013-01-08 10:43:00,
2013-01-08 04:48:00,28.5,25.4,30.08,South,182,0.0,3.0,88,0.00,,---,0.00,VWS V14.00,2013-01-08 10:48:00,
2013-01-08 04:53:00,28.4,25.6,30.08,South,188,0.0,4.0,89,0.00,,---,0.00,VWS V14.00,2013-01-08 10:53:00,
2013-01-08 04:58:00,28.4,25.6,30.08,South,189,1.0,4.0,89,0.00,,---,0.00,VWS V14.00,2013-01-08 10:58:00,
2013-01-08 05:03:00,28.4,25.6,30.08,South,189,0.0,0.0,89,0.00,,---,0.00,VWS V14.00,2013-01-08 11:03:00,
2013-01-08 05:09:00,28.3,25.5,30.08,South,181,2.0,2.0,89,0.00,,---,0.00,VWS V14.00,2013-01-08 11:09:00,
2013-01-08 05:14:00,28.3,25.5,30.08,South,177,2.0,4.0,89,0.00,,---,0.00,VWS V14.00,2013-01-08 11:14:00,
2013-01-08 05:19:00,28.3,25.5,30.08,SSW,192,0.0,4.0,89,0.00,,---,0.00,VWS V14.00,2013-01-08 11:19:00,
2013-01-08 05:24:00,28.3,25.5,30.08,SSW,192,0.0,4.0,89,0.00,,---,0.00,VWS V14.00,2013-01-08 11:24:00,
2013-01-08 05:29:00,28.2,25.4,30.08,SSW,192,0.0,4.0,89,0.00,,---,0.00,VWS V14.00,2013-01-08 11:29:00,
2013-01-08 05:34:00,27.9,24.8,30.08,SSW,192,0.0,0.0,88,0.00,,---,0.00,VWS V14.00,2013-01-08 11:34:00,
2013-01-08 05:39:00,27.0,23.4,30.08,SSE,154,1.0,4.0,86,0.00,,---,0.00,VWS V14.00,2013-01-08 11:39:00,
2013-01-08 05:44:00,27.0,24.5,30.09,South,181,0.0,4.0,90,0.00,,---,0.00,VWS V14.00,2013-01-08 11:44:00,
2013-01-08 05:49:00,27.3,25.0,30.09,South,190,1.0,4.0,91,0.00,,---,0.00,VWS V14.00,2013-01-08 11:49:00,
2013-01-08 05:54:00,27.4,25.1,30.09,South,190,0.0,4.0,91,0.00,,---,0.00,VWS V14.00,2013-01-08 11:54:00,
2013-01-08 06:00:00,27.2,24.4,30.08,South,190,0.0,4.0,89,0.00,,---,0.00,VWS V14.00,2013-01-08 12:00:00,
2013-01-08 06:05:00,27.2,24.9,30.09,SSE,151,0.0,2.0,91,0.00,,---,0.00,VWS V14.00,2013-01-08 12:05:00,
2013-01-08 06:10:00,27.4,25.1,30.09,SSE,155,0.0,2.0,91,0.00,,---,0.00,VWS V14.00,2013-01-08 12:10:00,
2013-01-08 06:15:00,27.6,25.3,30.09,SSW,196,0.0,4.0,91,0.00,,---,0.00,VWS V14.00,2013-01-08 12:15:00,
2013-01-08 06:20:00,27.8,25.5,30.09,South,184,0.0,4.0,91,0.00,,---,0.00,VWS V14.00,2013-01-08 12:20:00,
2013-01-08 06:25:00,27.9,25.4,30.09,South,187,2.0,4.0,90,0.00,,---,0.00,VWS V14.00,2013-01-08 12:25:00,
2013-01-08 06:30:00,28.0,25.5,30.09,SSW,193,1.0,2.0,90,0.00,,---,0.00,VWS V14.00,2013-01-08 12:30:00,
2013-01-08 06:35:00,28.1,25.5,30.09,SSW,205,0.0,5.0,90,0.00,,---,0.00,VWS V14.00,2013-01-08 12:35:00,
2013-01-08 06:40:00,28.0,25.2,30.09,SSW,205,0.0,5.0,89,0.00,,---,0.00,VWS V14.00,2013-01-08 12:40:00,
2013-01-08 06:45:00,27.5,24.4,30.10,SSW,205,0.0,5.0,88,0.00,,---,0.00,VWS V14.00,2013-01-08 12:45:00,
2013-01-08 06:51:00,27.0,23.9,30.09,SSW,205,0.0,5.0,88,0.00,,---,0.00,VWS V14.00,2013-01-08 12:51:00,
2013-01-08 06:56:00,26.7,23.9,30.10,SSW,205,0.0,5.0,89,0.00,,---,0.00,VWS V14.00,2013-01-08 12:56:00,
2013-01-08 07:01:00,26.4,23.9,30.10,SSW,205,0.0,1.0,90,0.00,,---,0.00,VWS V14.00,2013-01-08 13:01:00,
2013-01-08 07:06:00,26.1,23.3,30.10,SSW,205,0.0,1.0,89,0.00,,---,0.00,VWS V14.00,2013-01-08 13:06:00,
2013-01-08 07:11:00,25.8,23.3,30.10,SSW,205,0.0,1.0,90,0.00,,---,0.00,VWS V14.00,2013-01-08 13:11:00,
2013-01-08 07:16:00,25.7,23.2,30.10,SSW,205,0.0,1.0,90,0.00,,---,0.00,VWS V14.00,2013-01-08 13:16:00,
2013-01-08 07:21:00,25.6,23.3,30.10,SSW,205,0.0,1.0,91,0.00,,---,0.00,VWS V14.00,2013-01-08 13:21:00,
2013-01-08 07:26:00,25.4,23.1,30.11,SSW,205,0.0,4.0,91,0.00,,---,0.00,VWS V14.00,2013-01-08 13:26:00,
2013-01-08 07:31:00,25.6,23.6,30.11,SSW,205,0.0,0.0,92,0.00,,---,0.00,VWS V14.00,2013-01-08 13:31:00,
2013-01-08 07:36:00,25.6,23.6,30.11,SSW,205,0.0,1.0,92,0.00,,---,0.00,VWS V14.00,2013-01-08 13:36:00,
2013-01-08 07:42:00,25.8,23.8,30.11,SSW,205,0.0,1.0,92,0.00,,---,0.00,VWS V14.00,2013-01-08 13:42:00,
2013-01-08 07:47:00,25.9,23.9,30.11,SE,130,0.0,2.0,92,0.00,,---,0.00,VWS V14.00,2013-01-08 13:47:00,
2013-01-08 07:52:00,26.1,24.1,30.11,South,176,1.0,2.0,92,0.00,,---,0.00,VWS V14.00,2013-01-08 13:52:00,
2013-01-08 07:57:00,26.5,24.5,30.11,South,178,0.0,2.0,92,0.00,,---,0.00,VWS V14.00,2013-01-08 13:57:00,
2013-01-08 08:02:00,26.9,24.9,30.11,South,178,0.0,2.0,92,0.00,,---,0.00,VWS V14.00,2013-01-08 14:02:00,
2013-01-08 08:07:00,27.3,25.3,30.11,SE,136,0.0,2.0,92,0.00,,---,0.00,VWS V14.00,2013-01-08 14:07:00,
2013-01-08 08:12:00,27.5,25.2,30.11,SE,136,0.0,2.0,91,0.00,,---,0.00,VWS V14.00,2013-01-08 14:12:00,
2013-01-08 08:17:00,27.8,25.5,30.12,SE,136,0.0,2.0,91,0.00,,---,0.00,VWS V14.00,2013-01-08 14:17:00,
2013-01-08 08:22:00,28.0,25.7,30.12,South,169,0.0,2.0,91,0.00,,---,0.00,VWS V14.00,2013-01-08 14:22:00,
2013-01-08 08:28:00,28.3,25.8,30.12,South,169,2.0,2.0,90,0.00,,---,0.00,VWS V14.00,2013-01-08 14:28:00,
2013-01-08 08:33:00,28.7,26.1,30.12,South,175,0.0,4.0,90,0.00,,---,0.00,VWS V14.00,2013-01-08 14:33:00,
2013-01-08 08:38:00,29.1,26.5,30.12,South,180,0.0,4.0,90,0.00,,---,0.00,VWS V14.00,2013-01-08 14:38:00,
2013-01-08 08:43:00,29.5,26.7,30.12,South,180,0.0,4.0,89,0.00,,---,0.00,VWS V14.00,2013-01-08 14:43:00,
2013-01-08 08:48:00,30.0,26.9,30.12,South,190,0.0,4.0,88,0.00,,---,0.00,VWS V14.00,2013-01-08 14:48:00,
2013-01-08 08:53:00,30.4,27.3,30.12,South,190,2.0,4.0,88,0.00,,---,0.00,VWS V14.00,2013-01-08 14:53:00,
2013-01-08 08:58:00,30.7,27.3,30.12,South,175,0.0,6.0,87,0.00,,---,0.00,VWS V14.00,2013-01-08 14:58:00,
2013-01-08 09:03:00,31.2,27.5,30.12,South,177,4.0,6.0,86,0.00,,---,0.00,VWS V14.00,2013-01-08 15:03:00,
2013-01-08 09:08:00,31.5,27.8,30.12,SSW,198,0.0,6.0,86,0.00,,---,0.00,VWS V14.00,2013-01-08 15:08:00,
2013-01-08 09:14:00,32.0,28.0,30.12,ESE,107,2.0,6.0,85,0.00,,---,0.00,VWS V14.00,2013-01-08 15:14:00,
2013-01-08 09:19:00,32.3,28.0,30.12,SE,137,4.0,6.0,84,0.00,,---,0.00,VWS V14.00,2013-01-08 15:19:00,
2013-01-08 09:24:00,32.5,28.2,30.12,SE,125,0.0,10.0,84,0.00,,---,0.00,VWS V14.00,2013-01-08 15:24:00,
2013-01-08 09:29:00,32.9,28.3,30.12,South,176,0.0,10.0,83,0.00,,---,0.00,VWS V14.00,2013-01-08 15:29:00,
2013-01-08 09:34:00,33.2,28.3,30.11,SSW,192,2.0,7.0,82,0.00,,---,0.00,VWS V14.00,2013-01-08 15:34:00,
2013-01-08 09:39:00,33.5,28.6,30.11,South,180,1.0,10.0,82,0.00,,---,0.00,VWS V14.00,2013-01-08 15:39:00,
2013-01-08 09:44:00,33.7,28.8,30.12,South,184,3.0,10.0,82,0.00,,---,0.00,VWS V14.00,2013-01-08 15:44:00,
2013-01-08 09:49:00,33.9,29.0,30.12,South,184,6.0,10.0,82,0.00,,---,0.00,VWS V14.00,2013-01-08 15:49:00,
2013-01-08 09:54:00,34.3,29.1,30.11,South,178,1.0,10.0,81,0.00,,---,0.00,VWS V14.00,2013-01-08 15:54:00,
2013-01-08 09:59:00,34.7,29.2,30.12,South,188,2.0,10.0,80,0.00,,---,0.00,VWS V14.00,2013-01-08 15:59:00,
2013-01-08 10:05:00,34.8,29.3,30.11,SSE,154,4.0,10.0,80,0.00,,---,0.00,VWS V14.00,2013-01-08 16:05:00,
2013-01-08 10:10:00,34.9,29.4,30.11,South,181,4.0,11.0,80,0.00,,---,0.00,VWS V14.00,2013-01-08 16:10:00,
2013-01-08 10:15:00,35.0,29.2,30.11,SSE,163,5.0,11.0,79,0.00,,---,0.00,VWS V14.00,2013-01-08 16:15:00,
2013-01-08 10:20:00,35.1,29.3,30.11,SSW,198,4.0,11.0,79,0.00,,---,0.00,VWS V14.00,2013-01-08 16:20:00,
2013-01-08 10:25:00,35.3,29.5,30.11,South,178,7.0,11.0,79,0.00,,---,0.00,VWS V14.00,2013-01-08 16:25:00,
2013-01-08 10:30:00,35.5,29.6,30.11,South,182,1.0,6.0,79,0.00,,---,0.00,VWS V14.00,2013-01-08 16:30:00,
2013-01-08 10:35:00,35.8,29.9,30.11,South,178,1.0,7.0,79,0.00,,---,0.00,VWS V14.00,2013-01-08 16:35:00,
2013-01-08 10:40:00,36.1,29.9,30.11,SSE,168,0.0,10.0,78,0.00,,---,0.00,VWS V14.00,2013-01-08 16:40:00,
2013-01-08 10:45:00,36.3,30.1,30.11,South,190,3.0,10.0,78,0.00,,---,0.00,VWS V14.00,2013-01-08 16:45:00,
2013-01-08 10:51:00,36.4,30.2,30.10,SSW,195,3.0,10.0,78,0.00,,---,0.00,VWS V14.00,2013-01-08 16:51:00,
2013-01-08 10:56:00,36.6,30.1,30.10,SSW,210,3.0,10.0,77,0.00,,---,0.00,VWS V14.00,2013-01-08 16:56:00,
2013-01-08 11:01:00,36.7,30.5,30.10,SE,136,7.0,7.0,78,0.01,,---,0.01,VWS V14.00,2013-01-08 17:01:00,
2013-01-08 11:06:00,36.9,30.4,30.10,SSW,196,6.0,8.0,77,0.01,,---,0.01,VWS V14.00,2013-01-08 17:06:00,
2013-01-08 11:11:00,37.1,30.6,30.09,South,174,2.0,11.0,77,0.01,,---,0.01,VWS V14.00,2013-01-08 17:11:00,
2013-01-08 11:16:00,37.3,30.4,30.09,SSE,148,5.0,11.0,76,0.01,,---,0.01,VWS V14.00,2013-01-08 17:16:00,
2013-01-08 11:21:00,37.6,30.7,30.09,South,170,8.0,11.0,76,0.01,,---,0.01,VWS V14.00,2013-01-08 17:21:00,
2013-01-08 11:26:00,37.8,30.6,30.09,South,185,1.0,11.0,75,0.01,,---,0.01,VWS V14.00,2013-01-08 17:26:00,
2013-01-08 11:32:00,37.9,31.0,30.09,SSW,192,3.0,10.0,76,0.01,,---,0.01,VWS V14.00,2013-01-08 17:32:00,
2013-01-08 11:37:00,38.0,31.1,30.08,South,173,0.0,11.0,76,0.01,,---,0.01,VWS V14.00,2013-01-08 17:37:00,
2013-01-08 11:42:00,38.2,31.3,30.08,SE,145,2.0,11.0,76,0.01,,---,0.01,VWS V14.00,2013-01-08 17:42:00,
2013-01-08 11:47:00,38.4,31.2,30.08,South,185,5.0,11.0,75,0.01,,---,0.01,VWS V14.00,2013-01-08 17:47:00,
2013-01-08 11:52:00,38.5,31.3,30.08,SSE,150,1.0,11.0,75,0.01,,---,0.01,VWS V14.00,2013-01-08 17:52:00,
2013-01-08 11:57:00,38.6,31.7,30.07,SSE,148,1.0,11.0,76,0.01,,---,0.01,VWS V14.00,2013-01-08 17:57:00,
2013-01-08 12:02:00,38.7,31.5,30.07,SSE,162,2.0,9.0,75,0.00,,---,0.01,VWS V14.00,2013-01-08 18:02:00,
2013-01-08 12:07:00,38.7,31.5,30.07,South,184,0.0,9.0,75,0.00,,---,0.01,VWS V14.00,2013-01-08 18:07:00,
2013-01-08 12:12:00,38.8,31.9,30.07,South,184,3.0,9.0,76,0.00,,---,0.01,VWS V14.00,2013-01-08 18:12:00,
2013-01-08 12:17:00,38.8,31.6,30.07,South,182,5.0,9.0,75,0.00,,---,0.01,VWS V14.00,2013-01-08 18:17:00,
2013-01-08 12:23:00,38.8,31.2,30.07,SE,132,4.0,11.0,74,0.00,,---,0.01,VWS V14.00,2013-01-08 18:23:00,
2013-01-08 12:28:00,38.7,31.1,30.07,SSE,166,1.0,12.0,74,0.00,,---,0.01,VWS V14.00,2013-01-08 18:28:00,
2013-01-08 12:33:00,38.6,31.0,30.06,SSE,168,2.0,7.0,74,0.00,,---,0.01,VWS V14.00,2013-01-08 18:33:00,
2013-01-08 12:38:00,38.4,31.2,30.06,South,186,6.0,10.0,75,0.00,,---,0.01,VWS V14.00,2013-01-08 18:38:00,
2013-01-08 12:43:00,38.3,31.4,30.06,South,169,2.0,10.0,76,0.00,,---,0.01,VWS V14.00,2013-01-08 18:43:00,
2013-01-08 12:48:00,38.4,31.2,30.06,SSW,202,2.0,10.0,75,0.00,,---,0.01,VWS V14.00,2013-01-08 18:48:00,
2013-01-08 12:53:00,38.6,31.4,30.06,SSW,196,3.0,10.0,75,0.00,,---,0.01,VWS V14.00,2013-01-08 18:53:00,
2013-01-08 12:58:00,38.8,31.9,30.06,SSE,153,0.0,10.0,76,0.00,,---,0.01,VWS V14.00,2013-01-08 18:58:00,
2013-01-08 13:03:00,39.1,32.2,30.06,SE,132,5.0,5.0,76,0.00,,---,0.01,VWS V14.00,2013-01-08 19:03:00,
2013-01-08 13:09:00,39.6,32.7,30.06,SSE,156,0.0,6.0,76,0.00,,---,0.01,VWS V14.00,2013-01-08 19:09:00,
2013-01-08 13:14:00,40.1,32.8,30.05,SSW,192,0.0,6.0,75,0.00,,---,0.01,VWS V14.00,2013-01-08 19:14:00,
2013-01-08 13:19:00,40.6,33.0,30.05,ESE,123,6.0,9.0,74,0.01,,---,0.02,VWS V14.00,2013-01-08 19:19:00,
2013-01-08 13:24:00,40.6,32.6,30.05,SE,138,2.0,9.0,73,0.01,,---,0.02,VWS V14.00,2013-01-08 19:24:00,
2013-01-08 13:29:00,40.5,32.9,30.05,SE,138,0.0,9.0,74,0.01,,---,0.02,VWS V14.00,2013-01-08 19:29:00,
2013-01-08 13:34:00,40.5,32.9,30.04,SE,125,5.0,9.0,74,0.01,,---,0.02,VWS V14.00,2013-01-08 19:34:00,
2013-01-08 13:39:00,40.4,32.4,30.04,SSE,152,5.0,9.0,73,0.01,,---,0.02,VWS V14.00,2013-01-08 19:39:00,
2013-01-08 13:44:00,40.4,32.8,30.04,SSE,155,8.0,10.0,74,0.01,,---,0.02,VWS V14.00,2013-01-08 19:44:00,
2013-01-08 13:50:00,40.5,32.9,30.04,ESE,120,7.0,10.0,74,0.01,,---,0.02,VWS V14.00,2013-01-08 19:50:00,
2013-01-08 13:55:00,40.7,33.1,30.04,SE,138,7.0,10.0,74,0.01,,---,0.02,VWS V14.00,2013-01-08 19:55:00,
2013-01-08 14:00:00,40.8,33.2,30.03,SE,142,2.0,10.0,74,0.01,,---,0.02,VWS V14.00,2013-01-08 20:00:00,
2013-01-08 14:05:00,41.0,33.4,30.04,SSE,158,4.0,8.0,74,0.01,,---,0.02,VWS V14.00,2013-01-08 20:05:00,
2013-01-08 14:10:00,41.2,33.5,30.03,ESE,121,2.0,9.0,74,0.01,,---,0.02,VWS V14.00,2013-01-08 20:10:00,
2013-01-08 14:15:00,41.4,33.4,30.03,SE,142,4.0,9.0,73,0.01,,---,0.02,VWS V14.00,2013-01-08 20:15:00,
2013-01-08 14:20:00,41.5,33.5,30.03,SSE,150,2.0,9.0,73,0.01,,---,0.02,VWS V14.00,2013-01-08 20:20:00,
2013-01-08 14:25:00,41.7,33.7,30.04,SE,142,2.0,9.0,73,0.01,,---,0.02,VWS V14.00,2013-01-08 20:25:00,
2013-01-08 14:30:00,41.7,33.7,30.04,SE,138,5.0,5.0,73,0.00,,---,0.02,VWS V14.00,2013-01-08 20:30:00,
2013-01-08 14:36:00,41.8,33.8,30.04,SE,133,4.0,8.0,73,0.00,,---,0.02,VWS V14.00,2013-01-08 20:36:00,
2013-01-08 14:41:00,41.8,34.1,30.04,SSE,165,2.0,8.0,74,0.00,,---,0.02,VWS V14.00,2013-01-08 20:41:00,
2013-01-08 14:46:00,41.8,34.1,30.04,SE,136,0.0,8.0,74,0.00,,---,0.02,VWS V14.00,2013-01-08 20:46:00,
2013-01-08 14:51:00,41.5,33.8,30.03,SE,130,4.0,8.0,74,0.00,,---,0.02,VWS V14.00,2013-01-08 20:51:00,
2013-01-08 14:56:00,41.3,34.0,30.03,ESE,119,2.0,8.0,75,0.00,,---,0.02,VWS V14.00,2013-01-08 20:56:00,
2013-01-08 15:01:00,41.2,33.9,30.02,SE,133,4.0,4.0,75,0.00,,---,0.02,VWS V14.00,2013-01-08 21:01:00,
2013-01-08 15:06:00,41.4,34.4,30.02,SE,126,2.0,5.0,76,0.00,,---,0.02,VWS V14.00,2013-01-08 21:06:00,
2013-01-08 15:11:00,41.5,34.2,30.02,SE,126,1.0,6.0,75,0.00,,---,0.02,VWS V14.00,2013-01-08 21:11:00,
2013-01-08 15:16:00,41.6,34.3,30.02,SE,126,2.0,6.0,75,0.00,,---,0.02,VWS V14.00,2013-01-08 21:16:00,
2013-01-08 15:21:00,41.8,34.5,30.02,SE,126,0.0,6.0,75,0.00,,---,0.02,VWS V14.00,2013-01-08 21:21:00,
2013-01-08 15:27:00,41.8,34.5,30.02,SE,126,1.0,6.0,75,0.00,,---,0.02,VWS V14.00,2013-01-08 21:27:00,
2013-01-08 15:32:00,41.6,34.3,30.02,SE,126,0.0,5.0,75,0.00,,---,0.02,VWS V14.00,2013-01-08 21:32:00,
2013-01-08 15:37:00,41.4,34.1,30.01,ESE,123,2.0,5.0,75,0.00,,---,0.02,VWS V14.00,2013-01-08 21:37:00,
2013-01-08 15:42:00,41.1,34.1,30.01,SE,132,2.0,6.0,76,0.00,,---,0.02,VWS V14.00,2013-01-08 21:42:00,
2013-01-08 15:47:00,41.0,34.0,30.00,ESE,123,1.0,7.0,76,0.00,,---,0.02,VWS V14.00,2013-01-08 21:47:00,
2013-01-08 15:52:00,40.9,33.9,30.00,ESE,121,0.0,7.0,76,0.00,,---,0.02,VWS V14.00,2013-01-08 21:52:00,
2013-01-08 15:57:00,40.9,33.9,30.01,SE,125,1.0,7.0,76,0.00,,---,0.02,VWS V14.00,2013-01-08 21:57:00,
2013-01-08 16:02:00,41.0,34.0,30.01,SE,126,1.0,4.0,76,0.00,,---,0.02,VWS V14.00,2013-01-08 22:02:00,
2013-01-08 16:08:00,41.1,34.1,30.01,SE,126,0.0,4.0,76,0.00,,---,0.02,VWS V14.00,2013-01-08 22:08:00,
2013-01-08 16:13:00,41.2,34.2,30.01,SE,126,0.0,7.0,76,0.00,,---,0.02,VWS V14.00,2013-01-08 22:13:00,
2013-01-08 16:18:00,41.2,34.2,30.01,SE,126,1.0,7.0,76,0.00,,---,0.02,VWS V14.00,2013-01-08 22:18:00,
2013-01-08 16:23:00,41.1,34.1,30.01,South,169,2.0,7.0,76,0.00,,---,0.02,VWS V14.00,2013-01-08 22:23:00,
2013-01-08 16:28:00,41.1,34.1,30.01,SSE,163,1.0,7.0,76,0.00,,---,0.02,VWS V14.00,2013-01-08 22:28:00,
2013-01-08 16:33:00,41.1,33.8,30.01,SE,138,0.0,6.0,75,0.00,,---,0.02,VWS V14.00,2013-01-08 22:33:00,
2013-01-08 16:38:00,40.9,33.6,30.01,SE,138,2.0,6.0,75,0.00,,---,0.02,VWS V14.00,2013-01-08 22:38:00,
2013-01-08 16:44:00,40.6,33.3,30.01,SE,138,0.0,6.0,75,0.00,,---,0.02,VWS V14.00,2013-01-08 22:44:00,
2013-01-08 16:49:00,40.2,33.2,30.01,SE,138,0.0,6.0,76,0.00,,---,0.02,VWS V14.00,2013-01-08 22:49:00,
2013-01-08 16:54:00,39.6,33.0,30.01,SE,138,0.0,6.0,77,0.00,,---,0.02,VWS V14.00,2013-01-08 22:54:00,
2013-01-08 16:59:00,39.1,32.8,30.00,SE,138,1.0,6.0,78,0.00,,---,0.02,VWS V14.00,2013-01-08 22:59:00,
2013-01-08 17:04:00,38.9,32.6,30.00,SE,124,1.0,4.0,78,0.00,,---,0.02,VWS V14.00,2013-01-08 23:04:00,
2013-01-08 17:09:00,38.7,32.4,30.00,SE,124,1.0,4.0,78,0.00,,---,0.02,VWS V14.00,2013-01-08 23:09:00,
2013-01-08 17:14:00,38.4,32.2,30.00,SE,124,0.0,4.0,78,0.00,,---,0.02,VWS V14.00,2013-01-08 23:14:00,
2013-01-08 17:19:00,38.2,32.3,30.00,SE,124,1.0,4.0,79,0.00,,---,0.02,VWS V14.00,2013-01-08 23:19:00,
2013-01-08 17:24:00,38.1,32.2,30.00,SE,124,2.0,4.0,79,0.00,,---,0.02,VWS V14.00,2013-01-08 23:24:00,
2013-01-08 17:30:00,38.1,32.2,30.00,SE,136,0.0,6.0,79,0.00,,---,0.02,VWS V14.00,2013-01-08 23:30:00,
2013-01-08 17:35:00,38.1,32.2,30.00,SE,136,0.0,4.0,79,0.00,,---,0.02,VWS V14.00,2013-01-08 23:35:00,
2013-01-08 17:40:00,38.2,32.0,30.00,ESE,120,0.0,5.0,78,0.00,,---,0.02,VWS V14.00,2013-01-08 23:40:00,
2013-01-08 17:45:00,38.4,32.2,30.00,SE,138,2.0,10.0,78,0.00,,---,0.02,VWS V14.00,2013-01-08 23:45:00,
2013-01-08 17:50:00,38.3,32.0,29.99,ESE,108,4.0,10.0,78,0.00,,---,0.02,VWS V14.00,2013-01-08 23:50:00,
2013-01-08 17:55:00,38.5,31.9,29.99,SE,138,0.0,10.0,77,0.00,,---,0.02,VWS V14.00,2013-01-08 23:55:00,
2013-01-08 18:00:00,38.4,31.8,29.99,SE,139,4.0,5.0,77,0.00,,---,0.02,VWS V14.00,2013-01-09 00:00:00,
2013-01-08 18:05:00,38.4,31.8,29.99,SE,138,4.0,7.0,77,0.00,,---,0.02,VWS V14.00,2013-01-09 00:05:00,
2013-01-08 18:10:00,38.1,31.9,29.99,SE,138,6.0,7.0,78,0.00,,---,0.02,VWS V14.00,2013-01-09 00:10:00,
2013-01-08 18:16:00,38.0,31.8,29.99,SE,136,5.0,8.0,78,0.00,,---,0.02,VWS V14.00,2013-01-09 00:16:00,
2013-01-08 18:21:00,38.0,32.1,29.99,SE,132,0.0,8.0,79,0.00,,---,0.02,VWS V14.00,2013-01-09 00:21:00,
2013-01-08 18:26:00,38.1,32.2,29.99,SE,136,0.0,8.0,79,0.00,,---,0.02,VWS V14.00,2013-01-09 00:26:00,
2013-01-08 18:31:00,38.2,32.3,29.99,ESE,123,1.0,6.0,79,0.00,,---,0.02,VWS V14.00,2013-01-09 00:31:00,
2013-01-08 18:36:00,38.4,32.5,29.99,SE,143,7.0,11.0,79,0.00,,---,0.02,VWS V14.00,2013-01-09 00:36:00,
2013-01-08 18:41:00,38.5,32.6,29.99,ESE,123,2.0,12.0,79,0.00,,---,0.02,VWS V14.00,2013-01-09 00:41:00,
2013-01-08 18:46:00,38.6,32.7,29.99,SE,131,4.0,12.0,79,0.00,,---,0.02,VWS V14.00,2013-01-09 00:46:00,
2013-01-08 18:51:00,38.8,32.5,29.99,SE,133,4.0,12.0,78,0.00,,---,0.02,VWS V14.00,2013-01-09 00:51:00,
2013-01-08 18:56:00,38.9,32.6,29.99,SSE,150,6.0,12.0,78,0.00,,---,0.02,VWS V14.00,2013-01-09 00:56:00,
2013-01-08 19:01:00,39.0,32.7,30.00,SSE,167,1.0,9.0,78,0.00,,---,0.02,VWS V14.00,2013-01-09 01:01:00,
2013-01-08 19:07:00,38.9,33.0,30.00,SE,136,1.0,9.0,79,0.00,,---,0.02,VWS V14.00,2013-01-09 01:07:00,
2013-01-08 19:12:00,38.8,32.9,30.00,SE,126,11.0,13.0,79,0.00,,---,0.02,VWS V14.00,2013-01-09 01:12:00,
2013-01-08 19:17:00,38.7,32.8,30.00,SSE,147,1.0,13.0,79,0.00,,---,0.02,VWS V14.00,2013-01-09 01:17:00,
2013-01-08 19:22:00,38.8,32.9,30.00,SSE,152,2.0,13.0,79,0.00,,---,0.02,VWS V14.00,2013-01-09 01:22:00,
2013-01-08 19:27:00,38.9,33.0,29.99,SE,126,2.0,13.0,79,0.00,,---,0.02,VWS V14.00,2013-01-09 01:27:00,
2013-01-08 19:32:00,38.8,32.9,30.00,SE,130,1.0,7.0,79,0.00,,---,0.02,VWS V14.00,2013-01-09 01:32:00,
2013-01-08 19:37:00,38.8,32.9,30.00,South,178,2.0,12.0,79,0.00,,---,0.02,VWS V14.00,2013-01-09 01:37:00,
2013-01-08 19:42:00,38.8,32.9,30.00,SSE,158,2.0,12.0,79,0.00,,---,0.02,VWS V14.00,2013-01-09 01:42:00,
2013-01-08 19:48:00,38.8,32.9,30.00,SSE,163,9.0,12.0,79,0.00,,---,0.02,VWS V14.00,2013-01-09 01:48:00,
2013-01-08 19:53:00,38.7,33.1,30.01,SSE,160,5.0,12.0,80,0.00,,---,0.02,VWS V14.00,2013-01-09 01:53:00,
2013-01-08 19:58:00,38.6,33.0,30.01,SSE,154,1.0,12.0,80,0.00,,---,0.02,VWS V14.00,2013-01-09 01:58:00,
2013-01-08 20:03:00,38.6,33.0,30.01,South,180,3.0,7.0,80,0.00,,---,0.02,VWS V14.00,2013-01-09 02:03:00,
2013-01-08 20:08:00,38.6,33.0,30.01,South,174,4.0,9.0,80,0.00,,---,0.02,VWS V14.00,2013-01-09 02:08:00,
2013-01-08 20:13:00,38.6,33.0,30.01,South,189,5.0,12.0,80,0.00,,---,0.02,VWS V14.00,2013-01-09 02:13:00,
2013-01-08 20:18:00,38.6,33.3,30.00,SSE,159,2.0,12.0,81,0.00,,---,0.02,VWS V14.00,2013-01-09 02:18:00,
2013-01-08 20:23:00,38.6,33.3,30.01,SSW,194,0.0,12.0,81,0.00,,---,0.02,VWS V14.00,2013-01-09 02:23:00,
2013-01-08 20:29:00,38.5,33.2,30.01,South,184,4.0,12.0,81,0.00,,---,0.02,VWS V14.00,2013-01-09 02:29:00,
2013-01-08 20:34:00,38.4,33.1,30.01,South,187,4.0,8.0,81,0.00,,---,0.02,VWS V14.00,2013-01-09 02:34:00,
2013-01-08 20:39:00,38.3,33.0,30.01,SE,138,4.0,8.0,81,0.00,,---,0.02,VWS V14.00,2013-01-09 02:39:00,
2013-01-08 20:44:00,38.3,33.3,30.01,SW,219,1.0,12.0,82,0.00,,---,0.02,VWS V14.00,2013-01-09 02:44:00,
2013-01-08 20:49:00,38.3,33.3,30.01,SSE,158,4.0,12.0,82,0.00,,---,0.02,VWS V14.00,2013-01-09 02:49:00,
2013-01-08 20:54:00,38.3,33.3,30.01,South,173,6.0,12.0,82,0.00,,---,0.02,VWS V14.00,2013-01-09 02:54:00,
2013-01-08 20:59:00,38.3,33.3,30.01,SSE,161,4.0,12.0,82,0.00,,---,0.02,VWS V14.00,2013-01-09 02:59:00,
2013-01-08 21:05:00,38.3,33.3,30.01,SSE,147,4.0,11.0,82,0.00,,---,0.02,VWS V14.00,2013-01-09 03:05:00,
2013-01-08 21:10:00,38.4,33.1,30.01,SSW,212,3.0,11.0,81,0.00,,---,0.02,VWS V14.00,2013-01-09 03:10:00,
2013-01-08 21:15:00,38.4,33.1,30.01,SE,132,4.0,11.0,81,0.00,,---,0.02,VWS V14.00,2013-01-09 03:15:00,
2013-01-08 21:20:00,38.3,33.0,30.01,South,171,5.0,11.0,81,0.00,,---,0.02,VWS V14.00,2013-01-09 03:20:00,
2013-01-08 21:25:00,38.3,33.0,30.01,SSE,163,5.0,11.0,81,0.00,,---,0.02,VWS V14.00,2013-01-09 03:25:00,
2013-01-08 21:30:00,38.2,32.9,30.01,South,182,1.0,7.0,81,0.00,,---,0.02,VWS V14.00,2013-01-09 03:30:00,
2013-01-08 21:35:00,38.2,32.6,30.00,SSW,192,0.0,10.0,80,0.00,,---,0.02,VWS V14.00,2013-01-09 03:35:00,
2013-01-08 21:40:00,38.2,32.6,30.00,SSW,202,2.0,11.0,80,0.00,,---,0.02,VWS V14.00,2013-01-09 03:40:00,
2013-01-08 21:46:00,38.1,32.5,30.01,South,182,3.0,11.0,80,0.00,,---,0.02,VWS V14.00,2013-01-09 03:46:00,
2013-01-08 21:51:00,38.1,32.8,30.00,SSW,194,6.0,11.0,81,0.00,,---,0.02,VWS V14.00,2013-01-09 03:51:00,
2013-01-08 21:56:00,38.1,32.5,30.00,South,176,4.0,11.0,80,0.00,,---,0.02,VWS V14.00,2013-01-09 03:56:00,
2013-01-08 22:01:00,38.1,32.5,30.00,SSE,168,1.0,9.0,80,0.00,,---,0.02,VWS V14.00,2013-01-09 04:01:00,
2013-01-08 22:06:00,38.2,32.6,30.00,SE,146,5.0,9.0,80,0.00,,---,0.02,VWS V14.00,2013-01-09 04:06:00,
2013-01-08 22:11:00,38.2,32.6,30.00,South,178,2.0,10.0,80,0.00,,---,0.02,VWS V14.00,2013-01-09 04:11:00,
2013-01-08 22:16:00,38.2,32.6,29.99,South,177,4.0,10.0,80,0.00,,---,0.02,VWS V14.00,2013-01-09 04:16:00,
2013-01-08 22:21:00,38.2,32.6,29.99,SE,140,6.0,11.0,80,0.00,,---,0.02,VWS V14.00,2013-01-09 04:21:00,
2013-01-08 22:27:00,38.2,32.6,29.99,SSE,165,9.0,13.0,80,0.00,,---,0.02,VWS V14.00,2013-01-09 04:27:00,
2013-01-08 22:32:00,38.2,32.6,29.99,SSE,153,7.0,9.0,80,0.00,,---,0.02,VWS V14.00,2013-01-09 04:32:00,
2013-01-08 22:37:00,38.2,32.6,29.99,SSW,196,9.0,12.0,80,0.00,,---,0.02,VWS V14.00,2013-01-09 04:37:00,
2013-01-08 22:42:00,38.2,32.6,29.99,SSE,167,1.0,17.0,80,0.00,,---,0.02,VWS V14.00,2013-01-09 04:42:00,
2013-01-08 22:47:00,38.1,32.5,29.99,South,188,6.0,17.0,80,0.00,,---,0.02,VWS V14.00,2013-01-09 04:47:00,
2013-01-08 22:52:00,38.1,32.5,29.99,South,177,4.0,17.0,80,0.00,,---,0.02,VWS V14.00,2013-01-09 04:52:00,
2013-01-08 22:57:00,38.0,32.4,29.98,SSE,168,4.0,17.0,80,0.00,,---,0.02,VWS V14.00,2013-01-09 04:57:00,
2013-01-08 23:00:00,38.0,32.7,29.98,South,182,2.0,17.0,81,0.00,,---,0.02,VWS V14.00,2013-01-09 05:00:00,
2013-01-08 23:03:00,37.9,32.6,29.98,SSW,192,5.0,12.0,81,0.00,,---,0.02,VWS V14.00,2013-01-09 05:03:00,
2013-01-08 23:08:00,37.9,32.3,29.99,South,175,2.0,12.0,80,0.00,,---,0.02,VWS V14.00,2013-01-09 05:08:00,
2013-01-08 23:09:00,37.9,32.6,29.98,South,171,4.0,12.0,81,0.00,,---,0.02,VWS V14.00,2013-01-09 05:09:00,
2013-01-08 23:14:00,37.9,32.6,29.98,South,190,4.0,12.0,81,0.00,,---,0.02,VWS V14.00,2013-01-09 05:14:00,
2013-01-08 23:19:00,37.9,32.3,29.98,SSE,153,6.0,12.0,80,0.00,,---,0.02,VWS V14.00,2013-01-09 05:19:00,
2013-01-08 23:24:00,37.9,32.3,29.99,SSW,198,2.0,12.0,80,0.00,,---,0.02,VWS V14.00,2013-01-09 05:24:00,
2013-01-08 23:29:00,37.8,32.5,29.99,South,190,2.0,12.0,81,0.00,,---,0.02,VWS V14.00,2013-01-09 05:29:00,
2013-01-08 23:34:00,37.9,32.6,29.99,South,169,1.0,11.0,81,0.00,,---,0.02,VWS V14.00,2013-01-09 05:34:00,
2013-01-08 23:39:00,37.9,32.3,29.99,South,180,6.0,12.0,80,0.00,,---,0.02,VWS V14.00,2013-01-09 05:39:00,
2013-01-08 23:45:00,38.0,32.4,29.99,South,182,2.0,12.0,80,0.00,,---,0.02,VWS V14.00,2013-01-09 05:45:00,
2013-01-08 23:50:00,38.0,32.4,30.00,South,180,0.0,12.0,80,0.00,,---,0.02,VWS V14.00,2013-01-09 05:50:00,
2013-01-08 23:55:00,38.2,32.6,29.99,SSE,166,2.0,14.0,80,0.00,,---,0.02,VWS V14.00,2013-01-09 05:55:00,